Impacts TAF Board INFO
FOR SITUATIONAL AWARENESS. NOT TO BE USED FOR FLIGHT PLANNING PURPOSES.
IDs:

KSTL - St Louis/Lambert Int, MO, US

Issued at 1129 UTC 27 Feb 2017
Updated at 1351 UTC 27 Feb 2017
Potential Impact None Slight Moderate High
Time1251Z 27/14Z 27/15Z 27/16Z 27/17Z 27/18Z 27/19Z 27/20Z 27/21Z 27/22Z 27/23Z 28/00Z 28/01Z 28/02Z
Type OBS PRVL PRVL PRVL PRVL PRVL PRVL PRVL PRVL PRVL PRVL PRVL PRVL PRVL
VIS 8 >6 >6 >6 >6 >6 >6 >6 >6 >6 >6 >6 >6 >6
CIG -- -- -- -- -- -- -- -- -- -- -- -- -- --
Cover FEW SCT SCT SCT SCT SCT SCT SCT SCT SCT SCT SCT SCT SCT
FltCat VFR VFR VFR VFR VFR VFR VFR VFR VFR VFR VFR VFR VFR VFR
WX -- -- -- -- -- -- -- -- -- -- -- -- -- --
WDir 110 130 130 130 130 130 130 130 130 130 130 130 130 130
WSpd 6 6 6 6 6 6 6 6 6 6 6 6 6 6
WGst -- -- -- -- -- -- -- -- -- -- -- -- -- --

Raw TAF
KSTL 271129Z 2712/2818 13006KT P6SM FEW030 SCT070
  FM280500 15009KT P6SM VCTS BKN025CB
  FM280900 16009KT P6SM BKN020
  FM281500 19014G21KT P6SM BKN100


Raw METAR
KSTL 271251Z 11006KT 8SM FEW070 03/01 A3011 RMK AO2 SLP203 T00330006
KSTL 271151Z 10004KT 10SM SCT070 03/01 A3011 RMK AO2 SLP201 60000 T00330006 10061 20033 53006
KSTL 271051Z 11004KT 9SM BKN070 04/02 A3010 RMK AO2 SLP198 T00440017

METAR Board
Radar Display
Forecast Discussion

FOR SITUATIONAL AWARENESS. NOT TO BE USED FOR FLIGHT PLANNING PURPOSES.

Page loaded:  13:51 UTC  |   05:51 AM Pacific  |   06:51 AM Mountain  |   07:51 AM Central  |   08:51 AM Eastern

 

ADVISORIES

FORECASTS

FORECASTS

OBSERVATIONS

USER TOOLS

ABOUT US